createdAt,value
2023-04-02T00:00:52.819Z,85.0968
2023-04-02T00:01:54.241Z,85.3297
2023-04-02T00:02:55.730Z,85.1478
2023-04-02T00:03:57.173Z,84.7880
2023-04-02T00:04:58.598Z,84.3774
2023-04-02T00:05:59.964Z,84.4141
2023-04-02T00:07:01.327Z,84.7182
2023-04-02T00:08:02.740Z,84.1406
2023-04-02T00:09:04.116Z,83.6126
2023-04-02T00:10:05.549Z,83.3368
2023-04-02T00:11:06.958Z,83.6128
2023-04-02T00:12:08.339Z,84.6156
2023-04-02T00:13:09.735Z,84.5839
2023-04-02T00:14:11.186Z,84.5053
2023-04-02T00:15:12.635Z,84.5455
2023-04-02T00:16:14.018Z,84.3495
2023-04-02T00:17:15.437Z,84.3123
2023-04-02T00:18:16.902Z,84.8652
2023-04-02T00:19:18.279Z,84.6537
2023-04-02T00:20:19.628Z,84.4571
2023-04-02T00:21:20.970Z,83.9981
2023-04-02T00:22:22.377Z,83.7242
2023-04-02T00:23:23.770Z,83.7598
2023-04-02T00:24:25.199Z,84.3147
2023-04-02T00:25:26.576Z,84.5524
2023-04-02T00:26:28.037Z,84.5488
2023-04-02T00:27:29.363Z,84.8850
2023-04-02T00:28:30.749Z,85.1156
2023-04-02T00:29:32.133Z,85.4216
2023-04-02T00:30:33.508Z,85.7348
2023-04-02T00:31:34.900Z,86.4128
2023-04-02T00:32:36.307Z,86.5274
2023-04-02T00:33:37.742Z,87.1799
2023-04-02T00:34:39.204Z,87.4915
2023-04-02T00:35:40.660Z,87.7552
2023-04-02T00:36:42.171Z,87.4158
2023-04-02T00:37:43.571Z,87.8282
2023-04-02T00:38:46.665Z,87.9527
2023-04-02T00:39:46.425Z,87.6889
2023-04-02T00:40:47.774Z,87.9542
2023-04-02T00:41:49.197Z,87.8036
2023-04-02T00:42:50.607Z,87.7072
2023-04-02T00:43:52.051Z,88.1698
2023-04-02T00:44:53.504Z,88.1549
2023-04-02T00:45:54.923Z,88.2524
2023-04-02T00:46:56.354Z,88.4263
2023-04-02T00:47:57.854Z,88.5178
2023-04-02T00:48:59.241Z,88.6044
2023-04-02T00:50:00.717Z,88.8191
2023-04-02T00:51:02.093Z,88.7211
2023-04-02T00:52:03.531Z,88.3371
2023-04-02T00:53:04.920Z,88.3268
2023-04-02T00:54:06.378Z,88.6667
2023-04-02T00:55:07.793Z,88.7961
2023-04-02T00:56:09.280Z,89.0535
2023-04-02T00:57:10.653Z,89.1699
2023-04-02T00:58:12.131Z,88.6655
2023-04-02T00:59:13.495Z,88.8941
2023-04-02T01:00:14.979Z,88.6685
2023-04-02T01:01:16.395Z,88.6434
2023-04-02T01:02:18.070Z,88.6611
2023-04-02T01:03:19.666Z,89.1460
2023-04-02T01:04:21.515Z,88.8019
2023-04-02T01:05:23.068Z,88.9370
2023-04-02T01:06:24.471Z,88.8722
2023-04-02T01:07:26.112Z,88.7272
2023-04-02T01:08:27.534Z,88.2719
2023-04-02T01:09:28.882Z,88.5035
2023-04-02T01:10:30.343Z,88.4910
2023-04-02T01:11:31.879Z,88.4017
2023-04-02T01:12:33.381Z,88.4081
2023-04-02T01:13:34.782Z,88.3461
2023-04-02T01:14:36.204Z,88.3401
2023-04-02T01:15:38.110Z,88.9644
2023-04-02T01:16:39.782Z,88.4570
2023-04-02T01:17:41.182Z,88.7131
2023-04-02T01:18:42.583Z,88.6455
2023-04-02T01:19:43.938Z,89.4311
2023-04-02T01:20:45.384Z,88.8887
2023-04-02T01:21:46.796Z,88.3507
2023-04-02T01:22:48.256Z,88.1753
2023-04-02T01:23:49.605Z,88.1936
2023-04-02T01:24:50.993Z,88.1618
2023-04-02T01:25:52.449Z,88.4006
2023-04-02T01:26:53.777Z,88.1288
2023-04-02T01:27:55.182Z,87.8635
2023-04-02T01:28:56.575Z,88.1006
2023-04-02T01:29:57.955Z,87.8965
2023-04-02T01:30:59.346Z,88.0782
2023-04-02T01:32:00.791Z,87.9087
2023-04-02T01:33:02.255Z,88.0344
2023-04-02T01:34:03.674Z,88.0141
2023-04-02T01:35:05.039Z,88.1160
2023-04-02T01:36:06.419Z,88.3404
2023-04-02T01:37:07.813Z,88.7488
2023-04-02T01:38:09.205Z,88.4139
2023-04-02T01:39:10.628Z,88.4984
2023-04-02T01:40:12.023Z,88.9151
2023-04-02T01:41:13.407Z,88.7357
2023-04-02T01:42:14.824Z,88.5773
2023-04-02T01:43:16.195Z,88.3988
2023-04-02T01:44:17.553Z,88.0540
2023-04-02T01:45:18.955Z,88.3120
2023-04-02T01:46:20.435Z,88.1469
2023-04-02T01:47:21.768Z,87.8901
2023-04-02T01:48:23.208Z,87.6913
2023-04-02T01:49:24.573Z,87.3338
2023-04-02T01:50:25.977Z,87.6891
2023-04-02T01:51:27.394Z,87.0984
2023-04-02T01:52:28.882Z,86.9795
2023-04-02T01:53:30.222Z,87.5289
2023-04-02T01:54:31.665Z,87.1839
2023-04-02T01:55:33.328Z,87.1642
2023-04-02T01:56:35.179Z,87.6768
2023-04-02T01:57:36.572Z,86.6560
2023-04-02T01:58:37.950Z,86.4300
2023-04-02T01:59:39.369Z,86.4944
2023-04-02T02:00:40.902Z,86.7995
2023-04-02T02:01:42.467Z,86.8158
2023-04-02T02:02:43.918Z,87.3364
2023-04-02T02:03:45.400Z,87.1467
2023-04-02T02:04:46.853Z,86.9118
2023-04-02T02:05:48.218Z,87.0471
2023-04-02T02:06:49.632Z,87.4504
2023-04-02T02:07:51.039Z,87.5167
2023-04-02T02:08:52.440Z,87.3203
2023-04-02T02:09:53.787Z,87.8984
2023-04-02T02:10:55.194Z,87.4220
2023-04-02T02:11:56.564Z,87.7411
2023-04-02T02:12:57.998Z,87.4366
2023-04-02T02:13:59.356Z,87.8761
2023-04-02T02:15:00.814Z,88.3079
2023-04-02T02:16:02.189Z,88.5822
2023-04-02T02:17:03.575Z,87.8352
2023-04-02T02:18:04.927Z,87.6540
2023-04-02T02:19:06.322Z,87.2359
2023-04-02T02:20:07.741Z,87.3832
2023-04-02T02:21:09.114Z,87.1860
2023-04-02T02:22:10.547Z,87.0851
2023-04-02T02:23:11.936Z,87.5190
2023-04-02T02:24:13.414Z,87.4918
2023-04-02T02:25:14.827Z,88.2658
2023-04-02T02:26:16.238Z,88.2911
2023-04-02T02:27:17.587Z,87.3818
2023-04-02T02:28:19.002Z,86.9034
2023-04-02T02:29:20.384Z,87.0135
2023-04-02T02:30:21.770Z,87.8877
2023-04-02T02:31:23.270Z,87.7189
2023-04-02T02:32:24.701Z,86.1825
2023-04-02T02:33:26.079Z,85.9749
2023-04-02T02:34:27.469Z,85.4566
2023-04-02T02:35:28.983Z,85.9017
2023-04-02T02:36:30.364Z,86.4215
2023-04-02T02:37:31.741Z,87.0650
2023-04-02T02:38:33.147Z,86.8093
2023-04-02T02:39:34.635Z,85.3706
2023-04-02T02:40:36.049Z,85.0595
2023-04-02T02:41:37.441Z,85.6756
2023-04-02T02:42:38.832Z,85.5001
2023-04-02T02:43:40.272Z,85.5046
2023-04-02T02:44:41.670Z,84.8335
2023-04-02T02:45:43.071Z,85.7452
2023-04-02T02:46:44.437Z,85.8121
2023-04-02T02:47:45.885Z,85.9394
2023-04-02T02:48:47.217Z,86.2762
2023-04-02T02:49:48.632Z,86.3068
2023-04-02T02:50:50.060Z,86.2253
2023-04-02T02:51:51.441Z,86.3840
2023-04-02T02:52:52.849Z,86.3343
2023-04-02T02:53:54.249Z,85.9898
2023-04-02T02:54:55.917Z,85.9311
2023-04-02T02:55:57.331Z,85.7235
2023-04-02T02:56:58.716Z,85.8421
2023-04-02T02:58:00.142Z,86.1003
2023-04-02T02:59:01.516Z,86.2756
2023-04-02T03:00:02.962Z,85.9998
2023-04-02T03:01:04.402Z,85.9810
2023-04-02T03:02:05.762Z,86.1870
2023-04-02T03:03:07.238Z,85.4756
2023-04-02T03:04:09.000Z,85.0781
2023-04-02T03:05:10.674Z,85.1483
2023-04-02T03:06:12.100Z,84.7864
2023-04-02T03:07:13.485Z,84.8426
2023-04-02T03:08:14.975Z,85.3554
2023-04-02T03:09:16.398Z,85.3913
2023-04-02T03:10:17.816Z,84.8384
2023-04-02T03:11:19.277Z,84.8494
2023-04-02T03:12:20.685Z,85.0929
2023-04-02T03:13:22.066Z,85.2702
2023-04-02T03:14:23.446Z,84.9899
2023-04-02T03:15:24.798Z,85.4702
2023-04-02T03:16:26.297Z,85.2684
2023-04-02T03:17:27.732Z,85.8501
2023-04-02T03:18:29.155Z,85.6239
2023-04-02T03:19:30.566Z,86.3847
2023-04-02T03:20:31.951Z,85.6284
2023-04-02T03:21:33.399Z,85.0003
2023-04-02T03:22:34.776Z,84.9281
2023-04-02T03:23:36.164Z,85.4727
2023-04-02T03:24:37.524Z,85.5485
2023-04-02T03:25:38.979Z,85.6767
2023-04-02T03:26:40.308Z,85.4331
2023-04-02T03:27:41.755Z,85.6294
2023-04-02T03:28:43.135Z,85.6917
2023-04-02T03:29:44.575Z,86.1324
2023-04-02T03:30:46.028Z,85.0721
2023-04-02T03:31:47.585Z,85.2180
2023-04-02T03:32:49.112Z,85.6309
2023-04-02T03:33:50.596Z,84.9251
2023-04-02T03:34:52.059Z,84.8886
2023-04-02T03:35:53.611Z,84.6467
2023-04-02T03:36:55.065Z,84.9193
2023-04-02T03:37:56.547Z,85.1035
2023-04-02T03:38:58.105Z,84.9946
2023-04-02T03:39:59.594Z,84.7753
2023-04-02T03:41:01.173Z,84.8596
2023-04-02T03:42:02.553Z,85.0649
2023-04-02T03:43:04.015Z,85.4476
2023-04-02T03:44:05.514Z,85.0464
2023-04-02T03:45:07.156Z,85.1481
2023-04-02T03:46:08.926Z,84.5291
2023-04-02T03:47:10.381Z,84.8603
2023-04-02T03:48:11.841Z,85.1778
2023-04-02T03:49:13.324Z,85.0766
2023-04-02T03:50:14.796Z,85.5316
2023-04-02T03:51:16.307Z,85.4826
2023-04-02T03:52:17.779Z,85.5874
2023-04-02T03:53:19.242Z,85.5211
2023-04-02T03:54:20.720Z,85.9111
2023-04-02T03:55:22.253Z,85.9874
2023-04-02T03:56:23.636Z,86.2672
2023-04-02T03:57:25.174Z,86.4018
2023-04-02T03:58:26.721Z,86.1673
2023-04-02T03:59:28.283Z,85.9544
2023-04-02T04:00:29.703Z,86.2303
2023-04-02T04:01:31.209Z,86.0115
2023-04-02T04:02:32.652Z,86.0697
2023-04-02T04:03:34.181Z,86.3894
2023-04-02T04:04:35.730Z,86.0611
2023-04-02T04:05:37.456Z,86.0417
2023-04-02T04:06:39.097Z,85.8861
2023-04-02T04:07:40.520Z,85.8183
2023-04-02T04:08:41.949Z,83.6945
2023-04-02T04:09:43.413Z,81.8025
2023-04-02T04:10:44.890Z,81.9848
2023-04-02T04:11:46.346Z,82.8525
2023-04-02T04:12:47.915Z,82.8193
2023-04-02T04:13:49.384Z,82.7223
2023-04-02T04:14:50.851Z,82.2130
2023-04-02T04:15:52.275Z,82.3809
2023-04-02T04:16:54.003Z,82.3772
2023-04-02T04:17:55.950Z,82.5072
2023-04-02T04:18:57.396Z,82.7350
2023-04-02T04:19:58.856Z,82.3727
2023-04-02T04:21:00.396Z,81.9574
2023-04-02T04:22:01.850Z,82.1052
2023-04-02T04:23:03.268Z,81.7861
2023-04-02T04:24:04.863Z,82.2112
2023-04-02T04:25:06.285Z,82.3540
2023-04-02T04:26:07.731Z,82.6774
2023-04-02T04:27:09.182Z,82.4212
2023-04-02T04:28:10.653Z,82.1005
2023-04-02T04:29:12.070Z,82.2740
2023-04-02T04:30:13.641Z,82.3634
2023-04-02T04:31:15.103Z,82.5669
2023-04-02T04:32:16.609Z,82.8572
2023-04-02T04:33:18.246Z,83.1515
2023-04-02T04:34:19.697Z,83.5552
2023-04-02T04:35:21.144Z,83.1899
2023-04-02T04:36:22.586Z,82.9840
2023-04-02T04:37:24.077Z,82.8815
2023-04-02T04:38:25.562Z,83.2168
2023-04-02T04:39:27.154Z,82.9129
2023-04-02T04:40:28.602Z,82.9413
2023-04-02T04:41:30.049Z,82.8929
2023-04-02T04:42:31.491Z,83.2579
2023-04-02T04:43:32.982Z,83.0728
2023-04-02T04:44:34.445Z,83.0096
2023-04-02T04:45:36.221Z,82.4325
2023-04-02T04:46:37.882Z,82.5354
2023-04-02T04:47:39.373Z,82.5320
2023-04-02T04:48:40.813Z,82.1916
2023-04-02T04:49:42.266Z,82.1330
2023-04-02T04:50:43.705Z,82.6544
2023-04-02T04:51:45.179Z,82.5744
2023-04-02T04:52:46.632Z,81.7583
2023-04-02T04:53:48.185Z,82.1101
2023-04-02T04:54:49.663Z,82.0188
2023-04-02T04:55:51.104Z,82.3911
2023-04-02T04:56:52.606Z,82.4544
2023-04-02T04:57:54.040Z,82.3529
2023-04-02T04:58:55.454Z,82.0147
2023-04-02T04:59:56.878Z,81.6233
2023-04-02T05:00:58.321Z,81.8281
2023-04-02T05:01:59.793Z,81.8542
2023-04-02T05:03:01.373Z,81.9019
2023-04-02T05:04:02.791Z,82.2603
2023-04-02T05:05:04.317Z,82.5394
2023-04-02T05:06:05.764Z,82.7691
2023-04-02T05:07:07.235Z,82.1959
2023-04-02T05:08:08.664Z,82.5082
2023-04-02T05:09:10.080Z,82.7519
2023-04-02T05:10:11.563Z,81.8678
2023-04-02T05:11:13.045Z,81.6337
2023-04-02T05:12:14.493Z,82.0705
2023-04-02T05:13:15.913Z,82.1313
2023-04-02T05:14:17.416Z,82.2040
2023-04-02T05:15:18.867Z,82.3371
2023-04-02T05:16:20.383Z,82.3512
2023-04-02T05:17:21.870Z,82.4958
2023-04-02T05:18:23.372Z,82.0369
2023-04-02T05:19:24.824Z,82.3083
2023-04-02T05:20:26.263Z,82.2014
2023-04-02T05:21:27.669Z,82.0603
2023-04-02T05:22:29.109Z,82.4618
2023-04-02T05:23:30.614Z,82.2879
2023-04-02T05:24:31.998Z,82.2720
2023-04-02T05:25:33.669Z,82.2279
2023-04-02T05:26:35.183Z,82.2663
2023-04-02T05:27:36.681Z,82.5012
2023-04-02T05:28:38.132Z,82.7495
2023-04-02T05:29:39.647Z,82.1598
2023-04-02T05:30:41.251Z,81.4038
2023-04-02T05:31:42.795Z,81.1548
2023-04-02T05:32:44.367Z,81.3001
2023-04-02T05:33:45.866Z,81.3391
2023-04-02T05:34:47.343Z,81.7544
2023-04-02T05:35:48.867Z,82.0354
2023-04-02T05:36:50.356Z,81.9017
2023-04-02T05:37:51.809Z,81.4033
2023-04-02T05:38:53.277Z,81.5139
2023-04-02T05:39:54.792Z,81.6859
2023-04-02T05:40:56.275Z,81.6245
2023-04-02T05:41:57.761Z,81.6972
2023-04-02T05:42:59.197Z,81.5537
2023-04-02T05:44:00.665Z,81.3132
2023-04-02T05:45:02.134Z,81.3952
2023-04-02T05:46:03.804Z,81.5359
2023-04-02T05:47:05.244Z,81.7165
2023-04-02T05:48:06.748Z,81.6847
2023-04-02T05:49:08.183Z,81.3610
2023-04-02T05:50:09.663Z,81.7085
2023-04-02T05:51:11.094Z,81.7710
2023-04-02T05:52:12.556Z,81.9820
2023-04-02T05:53:14.095Z,81.7695
2023-04-02T05:54:15.563Z,81.5487
2023-04-02T05:55:17.386Z,81.6952
2023-04-02T05:56:18.813Z,81.6297
2023-04-02T05:57:20.270Z,81.6017
2023-04-02T05:58:35.573Z,81.5847
2023-04-02T05:59:21.738Z,81.4213
2023-04-02T06:00:23.180Z,81.4857
2023-04-02T06:01:24.620Z,81.3541
2023-04-02T06:02:26.086Z,81.1779
2023-04-02T06:03:27.745Z,81.0720
2023-04-02T06:04:29.223Z,81.0789
2023-04-02T06:05:30.641Z,81.3291
2023-04-02T06:06:32.075Z,81.4138
2023-04-02T06:07:33.516Z,81.2129
2023-04-02T06:08:35.057Z,81.4195
2023-04-02T06:09:36.519Z,81.3260
2023-04-02T06:10:37.972Z,81.3195
2023-04-02T06:11:39.417Z,81.3529
2023-04-02T06:12:40.922Z,81.3663
2023-04-02T06:13:42.406Z,81.3715
2023-04-02T06:14:43.935Z,81.5143
2023-04-02T06:15:47.247Z,80.9353
2023-04-02T06:16:46.801Z,81.1560
2023-04-02T06:17:48.301Z,81.1152
2023-04-02T06:18:49.789Z,81.1900
2023-04-02T06:19:51.251Z,81.3140
2023-04-02T06:20:52.720Z,81.1328
2023-04-02T06:21:54.124Z,80.9981
2023-04-02T06:22:55.623Z,81.0300
2023-04-02T06:23:57.102Z,80.9384
2023-04-02T06:24:58.543Z,80.6768
2023-04-02T06:26:00.013Z,80.3610
2023-04-02T06:27:01.491Z,80.2557
2023-04-02T06:28:02.982Z,80.1699
2023-04-02T06:29:04.465Z,80.4328
2023-04-02T06:30:05.917Z,80.1926
2023-04-02T06:31:07.552Z,79.8162
2023-04-02T06:32:08.992Z,79.9435
2023-04-02T06:33:10.521Z,79.9911
2023-04-02T06:34:12.000Z,80.1205
2023-04-02T06:35:13.442Z,80.1063
2023-04-02T06:36:14.878Z,80.5689
2023-04-02T06:37:16.252Z,80.3071
2023-04-02T06:38:17.745Z,80.2762
2023-04-02T06:39:19.184Z,80.4569
2023-04-02T06:40:20.640Z,80.1488
2023-04-02T06:41:22.861Z,79.6841
2023-04-02T06:42:24.331Z,79.7302
2023-04-02T06:43:25.780Z,79.7508
2023-04-02T06:44:27.254Z,79.9184
2023-04-02T06:45:28.681Z,79.8205
2023-04-02T06:46:30.172Z,79.3809
2023-04-02T06:47:31.704Z,79.3669
2023-04-02T06:48:33.280Z,79.6139
2023-04-02T06:49:34.701Z,79.5578
2023-04-02T06:50:36.168Z,79.5349
2023-04-02T06:51:37.609Z,79.4875
2023-04-02T06:52:39.072Z,79.4899
2023-04-02T06:53:40.517Z,79.4565
2023-04-02T06:54:41.948Z,79.5178
2023-04-02T06:55:43.422Z,79.6605
2023-04-02T06:56:44.779Z,79.7630
2023-04-02T06:57:46.244Z,79.7548
2023-04-02T06:58:47.709Z,79.4952
2023-04-02T06:59:49.132Z,78.9460
2023-04-02T07:00:50.513Z,79.0430
2023-04-02T07:01:51.998Z,78.9056
2023-04-02T07:02:55.152Z,78.9146
2023-04-02T07:03:58.447Z,79.1936
2023-04-02T07:05:00.864Z,78.2521
2023-04-02T07:06:02.273Z,78.2108
2023-04-02T07:07:03.734Z,78.0613
2023-04-02T07:08:05.208Z,78.3683
2023-04-02T07:09:07.641Z,77.7108
2023-04-02T07:10:09.172Z,77.6441
2023-04-02T07:11:10.649Z,77.7894
2023-04-02T07:12:12.062Z,78.0152
2023-04-02T07:13:13.533Z,78.4296
2023-04-02T07:14:15.002Z,77.8080
2023-04-02T07:15:16.586Z,77.6351
2023-04-02T07:16:18.093Z,77.7619
2023-04-02T07:17:19.640Z,77.5056
2023-04-02T07:18:21.198Z,77.6056
2023-04-02T07:19:22.769Z,77.7942
2023-04-02T07:20:24.238Z,77.6707
2023-04-02T07:21:25.683Z,78.5727
2023-04-02T07:22:27.091Z,78.0214
2023-04-02T07:23:28.560Z,77.8931
2023-04-02T07:24:30.030Z,77.7540
2023-04-02T07:25:31.487Z,77.3606
2023-04-02T07:26:32.932Z,77.0773
2023-04-02T07:27:34.379Z,77.1147
2023-04-02T07:28:35.859Z,76.9265
2023-04-02T07:29:37.271Z,76.9767
2023-04-02T07:30:38.688Z,76.7222
2023-04-02T07:31:40.230Z,76.5088
2023-04-02T07:32:41.674Z,76.4602
2023-04-02T07:33:43.081Z,76.7245
2023-04-02T07:34:44.485Z,76.8834
2023-04-02T07:35:46.028Z,76.5105
2023-04-02T07:36:47.441Z,76.0060
2023-04-02T07:37:48.894Z,75.7994
2023-04-02T07:38:50.303Z,75.8353
2023-04-02T07:39:51.809Z,75.4923
2023-04-02T07:40:53.238Z,75.9818
2023-04-02T07:41:54.568Z,74.9501
2023-04-02T07:42:56.038Z,75.3092
2023-04-02T07:43:57.524Z,75.4984
2023-04-02T07:44:58.926Z,75.2671
2023-04-02T07:46:00.339Z,75.6398
2023-04-02T07:47:01.834Z,75.9451
2023-04-02T07:48:03.495Z,76.1685
2023-04-02T07:49:05.010Z,75.7415
2023-04-02T07:50:06.491Z,74.6237
2023-04-02T07:51:07.919Z,74.6399
2023-04-02T07:52:09.373Z,73.7628
2023-04-02T07:53:10.786Z,74.1895
2023-04-02T07:54:12.254Z,74.1032
2023-04-02T07:55:13.672Z,73.9862
2023-04-02T07:56:15.104Z,72.7182
2023-04-02T07:57:16.556Z,72.1541
2023-04-02T07:58:17.975Z,73.0017
2023-04-02T07:59:19.442Z,72.3944
2023-04-02T08:00:20.860Z,72.6623
2023-04-02T08:01:22.279Z,73.1409
2023-04-02T08:02:23.703Z,73.9949
2023-04-02T08:03:25.318Z,74.4196
2023-04-02T08:04:26.845Z,74.5993
2023-04-02T08:05:28.331Z,74.7791
2023-04-02T08:06:29.776Z,75.0497
2023-04-02T08:07:31.229Z,74.3002
2023-04-02T08:08:32.685Z,74.0528
2023-04-02T08:09:34.123Z,73.7384
2023-04-02T08:10:35.639Z,74.7749
2023-04-02T08:11:37.154Z,74.2682
2023-04-02T08:12:38.678Z,73.9580
2023-04-02T08:13:40.131Z,74.2944
2023-04-02T08:14:41.639Z,73.2788
2023-04-02T08:15:43.028Z,73.8941
2023-04-02T08:16:44.586Z,74.9713
2023-04-02T08:17:46.029Z,75.4648
2023-04-02T08:18:47.473Z,74.7687
2023-04-02T08:19:55.130Z,73.9944
2023-04-02T08:20:49.011Z,73.9945
2023-04-02T08:21:50.466Z,74.1431
2023-04-02T08:22:51.945Z,74.0984
2023-04-02T08:23:53.371Z,75.2441
2023-04-02T08:24:54.912Z,76.1658
2023-04-02T08:25:56.366Z,76.4432
2023-04-02T08:26:57.847Z,76.3219
2023-04-02T08:27:59.292Z,76.6371
2023-04-02T08:29:00.853Z,76.4578
2023-04-02T08:30:02.316Z,76.7317
2023-04-02T08:31:03.853Z,75.6394
2023-04-02T08:32:05.276Z,76.1234
2023-04-02T08:33:06.768Z,75.3672
2023-04-02T08:34:08.195Z,75.4211
2023-04-02T08:35:09.731Z,75.4169
2023-04-02T08:36:11.304Z,74.9407
2023-04-02T08:37:12.733Z,74.4900
2023-04-02T08:38:14.140Z,74.4543
2023-04-02T08:39:15.586Z,75.1338
2023-04-02T08:40:17.023Z,74.4811
2023-04-02T08:41:18.571Z,74.6730
2023-04-02T08:42:19.984Z,74.1704
2023-04-02T08:43:23.109Z,74.5635
2023-04-02T08:44:22.973Z,74.6899
2023-04-02T08:45:25.595Z,74.3136
2023-04-02T08:46:24.918Z,74.2188
2023-04-02T08:47:26.420Z,74.2013
2023-04-02T08:48:27.841Z,73.8985
2023-04-02T08:49:29.322Z,74.2965
2023-04-02T08:50:30.861Z,74.2010
2023-04-02T08:51:32.302Z,74.3553
2023-04-02T08:52:33.740Z,73.7849
2023-04-02T08:53:35.206Z,74.1247
2023-04-02T08:54:36.676Z,73.7373
2023-04-02T08:55:38.240Z,74.2785
2023-04-02T08:56:39.737Z,73.8181
2023-04-02T08:57:41.182Z,73.4430
2023-04-02T08:58:42.610Z,73.3846
2023-04-02T08:59:44.107Z,73.4493
2023-04-02T09:00:45.562Z,73.4022
2023-04-02T09:01:47.031Z,72.7006
2023-04-02T09:02:48.480Z,72.4777
2023-04-02T09:03:49.916Z,72.5439
2023-04-02T09:04:51.439Z,72.6235
2023-04-02T09:05:52.933Z,72.6975
2023-04-02T09:06:54.369Z,73.2312
2023-04-02T09:07:55.811Z,73.5398
2023-04-02T09:08:57.267Z,73.8158
2023-04-02T09:09:58.836Z,73.9513
2023-04-02T09:11:00.306Z,73.8690
2023-04-02T09:12:01.803Z,73.2687
2023-04-02T09:13:03.198Z,73.3489
2023-04-02T09:14:04.747Z,73.1246
2023-04-02T09:15:06.214Z,72.7994
2023-04-02T09:16:07.792Z,72.5371
2023-04-02T09:17:09.251Z,72.7604
2023-04-02T09:18:10.741Z,72.4315
2023-04-02T09:19:12.166Z,72.5023
2023-04-02T09:20:13.661Z,72.0035
2023-04-02T09:21:15.112Z,71.7323
2023-04-02T09:22:16.593Z,71.5464
2023-04-02T09:23:18.044Z,70.9298
2023-04-02T09:24:19.523Z,70.4881
2023-04-02T09:25:21.021Z,70.9385
2023-04-02T09:26:22.460Z,70.7072
2023-04-02T09:27:23.893Z,71.5178
2023-04-02T09:28:25.341Z,71.3910
2023-04-02T09:29:26.769Z,71.4256
2023-04-02T09:30:28.257Z,70.9985
2023-04-02T09:31:29.705Z,71.8115
2023-04-02T09:32:31.165Z,70.7318
2023-04-02T09:33:32.536Z,70.5019
2023-04-02T09:34:34.159Z,71.5155
2023-04-02T09:35:35.597Z,71.5190
2023-04-02T09:36:37.051Z,71.0112
2023-04-02T09:37:38.464Z,70.5010
2023-04-02T09:38:39.955Z,70.8134
2023-04-02T09:39:41.430Z,70.4981
2023-04-02T09:40:43.097Z,71.1946
2023-04-02T09:41:48.186Z,71.6569
2023-04-02T09:42:44.590Z,71.9704
2023-04-02T09:43:46.046Z,71.9962
2023-04-02T09:44:47.516Z,70.8520
2023-04-02T09:45:49.282Z,70.1062
2023-04-02T09:46:50.764Z,70.4715
2023-04-02T09:47:52.240Z,70.1472
2023-04-02T09:48:53.703Z,70.3283
2023-04-02T09:49:55.149Z,70.3889
2023-04-02T09:50:56.639Z,69.8960
2023-04-02T09:51:58.732Z,69.7913
2023-04-02T09:53:00.212Z,69.8272
2023-04-02T09:54:01.681Z,69.1381
2023-04-02T09:55:03.137Z,69.5540
2023-04-02T09:56:04.617Z,69.7041
2023-04-02T09:57:06.120Z,69.3924
2023-04-02T09:58:07.575Z,69.9217
2023-04-02T09:59:09.025Z,69.7379
2023-04-02T10:00:18.371Z,69.8667
2023-04-02T10:01:10.586Z,69.6907
2023-04-02T10:02:12.024Z,69.3739
2023-04-02T10:03:13.478Z,68.5065
2023-04-02T10:04:14.951Z,67.8911
2023-04-02T10:05:23.549Z,68.1602
2023-04-02T10:06:15.550Z,67.7185
2023-04-02T10:07:16.970Z,67.3515
2023-04-02T10:08:18.446Z,67.5157
2023-04-02T10:09:19.915Z,67.4600
2023-04-02T10:10:21.406Z,67.1079
2023-04-02T10:11:22.973Z,67.5747
2023-04-02T10:12:24.930Z,67.7048
2023-04-02T10:13:26.364Z,67.4040
2023-04-02T10:14:27.829Z,67.5215
2023-04-02T10:15:29.222Z,67.0943
2023-04-02T10:16:30.708Z,66.8575
2023-04-02T10:17:32.178Z,65.9543
2023-04-02T10:18:33.722Z,66.6992
2023-04-02T10:19:35.179Z,66.4732
2023-04-02T10:20:48.597Z,66.8465
2023-04-02T10:21:36.653Z,67.1253
2023-04-02T10:22:38.117Z,66.6617
2023-04-02T10:23:39.591Z,67.2678
2023-04-02T10:24:41.052Z,67.1985
2023-04-02T10:25:42.508Z,65.8249
2023-04-02T10:26:43.990Z,65.4373
2023-04-02T10:27:45.402Z,65.7872
2023-04-02T10:28:46.895Z,66.5675
2023-04-02T10:29:48.331Z,65.9530
2023-04-02T10:30:49.814Z,66.1960
2023-04-02T10:31:51.231Z,66.0357
2023-04-02T10:32:52.728Z,65.8604
2023-04-02T10:33:54.189Z,65.9182
2023-04-02T10:34:55.622Z,64.9526
2023-04-02T10:35:57.123Z,65.9108
2023-04-02T10:36:58.541Z,66.2703
2023-04-02T10:37:59.994Z,66.2359
2023-04-02T10:39:01.414Z,66.0816
2023-04-02T10:40:02.845Z,65.8281
2023-04-02T10:41:04.324Z,66.2183
2023-04-02T10:42:05.723Z,66.6910
2023-04-02T10:43:07.181Z,66.7178
2023-04-02T10:44:18.998Z,67.1918
2023-04-02T10:45:08.707Z,67.4725
2023-04-02T10:46:10.205Z,66.2408
2023-04-02T10:47:11.737Z,64.8663
2023-04-02T10:48:13.192Z,65.1925
2023-04-02T10:49:14.672Z,64.6676
2023-04-02T10:50:16.100Z,64.4381
2023-04-02T10:51:17.596Z,63.7560
2023-04-02T10:52:19.038Z,63.8464
2023-04-02T10:53:20.485Z,64.1392
2023-04-02T10:54:21.899Z,63.4195
2023-04-02T10:55:23.366Z,63.6320
2023-04-02T10:56:24.832Z,62.7898
2023-04-02T10:57:26.304Z,62.3752
2023-04-02T10:58:27.739Z,63.3614
2023-04-02T10:59:29.194Z,62.3905
2023-04-02T11:00:30.655Z,61.6641
2023-04-02T11:01:32.156Z,62.0551
2023-04-02T11:02:33.594Z,61.8359
2023-04-02T11:03:35.197Z,61.6449
2023-04-02T11:04:36.675Z,61.4286
2023-04-02T11:05:38.158Z,61.3065
2023-04-02T11:06:39.586Z,61.5937
2023-04-02T11:07:41.021Z,62.1250
2023-04-02T11:08:42.417Z,61.8847
2023-04-02T11:09:43.896Z,61.8272
2023-04-02T11:10:45.343Z,63.5577
2023-04-02T11:11:46.789Z,62.9759
2023-04-02T11:12:48.199Z,62.5647
2023-04-02T11:13:49.657Z,62.7630
2023-04-02T11:14:51.114Z,61.9364
2023-04-02T11:15:52.579Z,62.2259
2023-04-02T11:16:54.038Z,61.2382
2023-04-02T11:17:55.513Z,61.5083
2023-04-02T11:18:56.954Z,61.3995
2023-04-02T11:19:58.377Z,61.4726
2023-04-02T11:20:59.834Z,60.1752
2023-04-02T11:22:03.113Z,61.5819
2023-04-02T11:23:01.818Z,61.3063
2023-04-02T11:24:03.218Z,61.2812
2023-04-02T11:25:04.672Z,61.2943
2023-04-02T11:26:06.115Z,61.4870
2023-04-02T11:27:07.650Z,61.0556
2023-04-02T11:28:09.073Z,61.4890
2023-04-02T11:29:10.532Z,60.7214
2023-04-02T11:30:11.972Z,60.9069
2023-04-02T11:31:13.406Z,61.0439
2023-04-02T11:32:14.818Z,62.0205
2023-04-02T11:33:18.692Z,60.5252
2023-04-02T11:34:17.554Z,60.5983
2023-04-02T11:35:19.012Z,60.0350
2023-04-02T11:36:20.420Z,59.9391
2023-04-02T11:37:21.911Z,60.0430
2023-04-02T11:38:23.294Z,59.2215
2023-04-02T11:39:24.726Z,59.4061
2023-04-02T11:40:26.154Z,58.3631
2023-04-02T11:41:27.576Z,56.9591
2023-04-02T11:42:29.023Z,56.0664
2023-04-02T11:43:30.455Z,54.1751
2023-04-02T11:44:31.838Z,51.9454
2023-04-02T11:45:40.167Z,47.7366
2023-04-02T11:46:33.221Z,52.3726
2023-04-02T11:47:34.660Z,54.0911
2023-04-02T11:48:36.273Z,55.1995
2023-04-02T11:49:37.788Z,57.5031
2023-04-02T11:50:38.255Z,57.1551
2023-04-02T11:51:39.762Z,54.2538
2023-04-02T11:52:41.272Z,59.1519
2023-04-02T11:53:42.649Z,57.1287
2023-04-02T11:54:44.074Z,57.2595
2023-04-02T11:55:45.418Z,57.4684
2023-04-02T11:56:46.793Z,59.9444
2023-04-02T11:57:48.176Z,61.0640
2023-04-02T11:58:49.527Z,60.4147
2023-04-02T11:59:50.863Z,61.4317
2023-04-02T12:00:52.267Z,58.0992
2023-04-02T12:01:53.633Z,56.1021
2023-04-02T12:02:55.016Z,55.2482
2023-04-02T12:03:56.396Z,58.8201
2023-04-02T12:04:57.721Z,62.1944
2023-04-02T12:05:59.082Z,60.2429
2023-04-02T12:07:00.463Z,63.2171
2023-04-02T12:08:01.830Z,64.2822
2023-04-02T12:09:03.271Z,63.3310
2023-04-02T12:10:04.639Z,62.5203
2023-04-02T12:11:06.016Z,61.2633
2023-04-02T12:12:07.398Z,61.8131
2023-04-02T12:13:08.795Z,61.3972
2023-04-02T12:14:10.177Z,61.6828
2023-04-02T12:15:10.165Z,62.8252
2023-04-02T12:16:11.558Z,62.6025
2023-04-02T12:17:13.091Z,62.3824
2023-04-02T12:18:14.583Z,62.2330
2023-04-02T12:19:15.968Z,61.3343
2023-04-02T12:20:17.386Z,62.0287
2023-04-02T12:21:18.795Z,62.1796
2023-04-02T12:22:20.344Z,61.0452
2023-04-02T12:23:21.745Z,60.6351